sensor_id;sensor_type;location;lat;lon;timestamp;pressure;altitude;pressure_sealevel;temperature;humidity
60646;BME280;46462;32.608;-117.032;2023-08-07T00:00:43;99329.23;;;30.22;48.68
60646;BME280;46462;32.608;-117.032;2023-08-07T00:03:13;99326.60;;;30.23;48.65
60646;BME280;46462;32.608;-117.032;2023-08-07T00:05:45;99324.19;;;30.23;48.69
60646;BME280;46462;32.608;-117.032;2023-08-07T00:08:14;99321.59;;;30.26;48.69
60646;BME280;46462;32.608;-117.032;2023-08-07T00:10:45;99318.99;;;30.26;48.76
60646;BME280;46462;32.608;-117.032;2023-08-07T00:13:16;99321.46;;;30.27;48.84
60646;BME280;46462;32.608;-117.032;2023-08-07T00:15:46;99321.44;;;30.28;48.90
60646;BME280;46462;32.608;-117.032;2023-08-07T00:18:16;99322.10;;;30.29;48.89
60646;BME280;46462;32.608;-117.032;2023-08-07T00:20:47;99321.94;;;30.29;48.78
60646;BME280;46462;32.608;-117.032;2023-08-07T00:23:17;99322.24;;;30.32;48.64
60646;BME280;46462;32.608;-117.032;2023-08-07T00:25:48;99323.53;;;30.32;48.69
60646;BME280;46462;32.608;-117.032;2023-08-07T00:28:18;99319.84;;;30.33;48.81
60646;BME280;46462;32.608;-117.032;2023-08-07T00:30:49;99314.91;;;30.32;48.83
60646;BME280;46462;32.608;-117.032;2023-08-07T00:33:19;99312.64;;;30.34;48.78
60646;BME280;46462;32.608;-117.032;2023-08-07T00:35:50;99309.78;;;30.35;48.74
60646;BME280;46462;32.608;-117.032;2023-08-07T00:38:20;99312.38;;;30.36;48.75
60646;BME280;46462;32.608;-117.032;2023-08-07T00:40:51;99314.70;;;30.35;48.60
60646;BME280;46462;32.608;-117.032;2023-08-07T00:43:21;99309.42;;;30.39;48.37
60646;BME280;46462;32.608;-117.032;2023-08-07T00:45:51;99312.42;;;30.41;48.47
60646;BME280;46462;32.608;-117.032;2023-08-07T00:48:22;99313.39;;;30.44;48.42
60646;BME280;46462;32.608;-117.032;2023-08-07T00:50:52;99312.90;;;30.45;48.47
60646;BME280;46462;32.608;-117.032;2023-08-07T00:53:23;99313.20;;;30.47;48.51
60646;BME280;46462;32.608;-117.032;2023-08-07T00:55:53;99313.80;;;30.47;48.57
60646;BME280;46462;32.608;-117.032;2023-08-07T00:58:24;99314.21;;;30.53;48.43
60646;BME280;46462;32.608;-117.032;2023-08-07T01:00:54;99314.24;;;30.53;48.58
60646;BME280;46462;32.608;-117.032;2023-08-07T01:03:25;99313.46;;;30.52;48.62
60646;BME280;46462;32.608;-117.032;2023-08-07T01:05:55;99315.08;;;30.51;48.69
60646;BME280;46462;32.608;-117.032;2023-08-07T01:08:26;99315.46;;;30.51;48.77
60646;BME280;46462;32.608;-117.032;2023-08-07T01:11:09;99318.99;;;30.50;48.83
60646;BME280;46462;32.608;-117.032;2023-08-07T01:13:31;99324.14;;;30.51;48.82
60646;BME280;46462;32.608;-117.032;2023-08-07T01:16:01;99325.99;;;30.51;48.86
60646;BME280;46462;32.608;-117.032;2023-08-07T01:18:28;99327.42;;;30.51;48.86
60646;BME280;46462;32.608;-117.032;2023-08-07T01:20:58;99324.57;;;30.51;48.84
60646;BME280;46462;32.608;-117.032;2023-08-07T01:23:28;99326.14;;;30.51;48.92
60646;BME280;46462;32.608;-117.032;2023-08-07T01:25:59;99321.01;;;30.50;48.90
60646;BME280;46462;32.608;-117.032;2023-08-07T01:28:33;99324.55;;;30.48;48.97
60646;BME280;46462;32.608;-117.032;2023-08-07T01:31:06;99325.56;;;30.47;49.03
60646;BME280;46462;32.608;-117.032;2023-08-07T01:33:34;99327.57;;;30.46;49.09
60646;BME280;46462;32.608;-117.032;2023-08-07T01:36:04;99331.50;;;30.47;49.04
60646;BME280;46462;32.608;-117.032;2023-08-07T01:38:32;99334.69;;;30.48;49.06
60646;BME280;46462;32.608;-117.032;2023-08-07T01:41:02;99335.97;;;30.48;49.12
60646;BME280;46462;32.608;-117.032;2023-08-07T01:43:33;99340.47;;;30.49;49.10
60646;BME280;46462;32.608;-117.032;2023-08-07T01:46:03;99341.18;;;30.48;49.08
60646;BME280;46462;32.608;-117.032;2023-08-07T01:48:34;99344.11;;;30.49;49.07
60646;BME280;46462;32.608;-117.032;2023-08-07T01:51:05;99342.12;;;30.49;49.16
60646;BME280;46462;32.608;-117.032;2023-08-07T01:53:35;99345.58;;;30.49;49.17
60646;BME280;46462;32.608;-117.032;2023-08-07T01:56:06;99340.29;;;30.48;49.23
60646;BME280;46462;32.608;-117.032;2023-08-07T01:58:36;99344.54;;;30.48;49.23
60646;BME280;46462;32.608;-117.032;2023-08-07T02:01:07;99345.64;;;30.48;49.17
60646;BME280;46462;32.608;-117.032;2023-08-07T02:03:37;99348.75;;;30.48;49.08
60646;BME280;46462;32.608;-117.032;2023-08-07T02:06:07;99350.88;;;30.47;49.14
60646;BME280;46462;32.608;-117.032;2023-08-07T02:08:38;99352.79;;;30.47;49.07
60646;BME280;46462;32.608;-117.032;2023-08-07T02:11:09;99353.67;;;30.46;49.01
60646;BME280;46462;32.608;-117.032;2023-08-07T02:13:39;99358.49;;;30.45;48.91
60646;BME280;46462;32.608;-117.032;2023-08-07T02:16:10;99362.76;;;30.45;48.91
60646;BME280;46462;32.608;-117.032;2023-08-07T02:18:40;99364.14;;;30.44;48.90
60646;BME280;46462;32.608;-117.032;2023-08-07T02:21:11;99364.83;;;30.42;48.90
60646;BME280;46462;32.608;-117.032;2023-08-07T02:23:42;99363.69;;;30.41;48.85
60646;BME280;46462;32.608;-117.032;2023-08-07T02:26:12;99365.37;;;30.39;48.87
60646;BME280;46462;32.608;-117.032;2023-08-07T02:28:42;99370.87;;;30.38;48.80
60646;BME280;46462;32.608;-117.032;2023-08-07T02:31:13;99372.09;;;30.38;48.77
60646;BME280;46462;32.608;-117.032;2023-08-07T02:33:44;99371.21;;;30.38;48.70
60646;BME280;46462;32.608;-117.032;2023-08-07T02:36:14;99374.54;;;30.38;48.51
60646;BME280;46462;32.608;-117.032;2023-08-07T02:38:45;99374.54;;;30.37;48.52
60646;BME280;46462;32.608;-117.032;2023-08-07T02:41:15;99376.51;;;30.35;48.45
60646;BME280;46462;32.608;-117.032;2023-08-07T02:43:47;99376.53;;;30.34;48.43
60646;BME280;46462;32.608;-117.032;2023-08-07T02:46:16;99376.05;;;30.32;48.25
60646;BME280;46462;32.608;-117.032;2023-08-07T02:48:46;99377.11;;;30.33;48.22
60646;BME280;46462;32.608;-117.032;2023-08-07T02:51:17;99382.65;;;30.34;48.00
60646;BME280;46462;32.608;-117.032;2023-08-07T02:53:48;99383.65;;;30.34;47.97
60646;BME280;46462;32.608;-117.032;2023-08-07T02:56:18;99391.49;;;30.35;47.96
60646;BME280;46462;32.608;-117.032;2023-08-07T02:58:49;99397.45;;;30.39;47.80
60646;BME280;46462;32.608;-117.032;2023-08-07T03:01:20;99399.72;;;30.48;47.45
60646;BME280;46462;32.608;-117.032;2023-08-07T03:03:49;99401.94;;;30.45;47.35
60646;BME280;46462;32.608;-117.032;2023-08-07T03:06:20;99407.93;;;30.41;47.59
60646;BME280;46462;32.608;-117.032;2023-08-07T03:08:51;99413.64;;;30.36;47.73
60646;BME280;46462;32.608;-117.032;2023-08-07T03:11:21;99418.33;;;30.34;47.65
60646;BME280;46462;32.608;-117.032;2023-08-07T03:13:52;99420.57;;;30.33;47.54
60646;BME280;46462;32.608;-117.032;2023-08-07T03:16:22;99422.35;;;30.31;47.46
60646;BME280;46462;32.608;-117.032;2023-08-07T03:18:53;99424.61;;;30.30;47.44
60646;BME280;46462;32.608;-117.032;2023-08-07T03:21:23;99427.05;;;30.29;47.43
60646;BME280;46462;32.608;-117.032;2023-08-07T03:23:54;99431.75;;;30.27;47.42
60646;BME280;46462;32.608;-117.032;2023-08-07T03:26:25;99433.79;;;30.24;47.54
60646;BME280;46462;32.608;-117.032;2023-08-07T03:28:55;99438.39;;;30.20;47.51
60646;BME280;46462;32.608;-117.032;2023-08-07T03:31:26;99441.04;;;30.19;47.45
60646;BME280;46462;32.608;-117.032;2023-08-07T03:33:56;99444.97;;;30.17;47.52
60646;BME280;46462;32.608;-117.032;2023-08-07T03:36:27;99443.02;;;30.16;47.46
60646;BME280;46462;32.608;-117.032;2023-08-07T03:38:57;99442.79;;;30.16;47.45
60646;BME280;46462;32.608;-117.032;2023-08-07T03:41:28;99443.02;;;30.16;47.36
60646;BME280;46462;32.608;-117.032;2023-08-07T03:43:59;99444.04;;;30.16;47.40
60646;BME280;46462;32.608;-117.032;2023-08-07T03:46:29;99446.40;;;30.16;47.38
60646;BME280;46462;32.608;-117.032;2023-08-07T03:49:00;99449.58;;;30.14;47.47
60646;BME280;46462;32.608;-117.032;2023-08-07T03:51:30;99449.68;;;30.14;47.40
60646;BME280;46462;32.608;-117.032;2023-08-07T03:54:01;99451.64;;;30.11;47.55
60646;BME280;46462;32.608;-117.032;2023-08-07T03:56:31;99453.60;;;30.10;47.52
60646;BME280;46462;32.608;-117.032;2023-08-07T03:59:02;99456.98;;;30.08;47.55
60646;BME280;46462;32.608;-117.032;2023-08-07T04:01:32;99458.20;;;30.15;47.34
60646;BME280;46462;32.608;-117.032;2023-08-07T04:04:03;99464.44;;;30.13;47.37
60646;BME280;46462;32.608;-117.032;2023-08-07T04:06:33;99467.00;;;30.10;47.41
60646;BME280;46462;32.608;-117.032;2023-08-07T04:09:04;99472.33;;;30.07;47.52
60646;BME280;46462;32.608;-117.032;2023-08-07T04:11:34;99475.29;;;30.05;47.52
60646;BME280;46462;32.608;-117.032;2023-08-07T04:14:05;99477.65;;;30.03;47.64
60646;BME280;46462;32.608;-117.032;2023-08-07T04:16:36;99480.50;;;30.02;47.59
60646;BME280;46462;32.608;-117.032;2023-08-07T04:19:06;99481.44;;;30.00;47.69
60646;BME280;46462;32.608;-117.032;2023-08-07T04:21:36;99484.61;;;30.01;47.67
60646;BME280;46462;32.608;-117.032;2023-08-07T04:24:07;99486.91;;;29.98;47.70
60646;BME280;46462;32.608;-117.032;2023-08-07T04:26:38;99488.23;;;29.98;47.73
60646;BME280;46462;32.608;-117.032;2023-08-07T04:29:08;99488.70;;;29.95;47.64
60646;BME280;46462;32.608;-117.032;2023-08-07T04:31:39;99491.44;;;29.94;47.85
60646;BME280;46462;32.608;-117.032;2023-08-07T04:34:09;99492.19;;;29.91;47.81
60646;BME280;46462;32.608;-117.032;2023-08-07T04:36:40;99491.74;;;29.90;47.73
60646;BME280;46462;32.608;-117.032;2023-08-07T04:39:11;99486.55;;;29.88;47.85
60646;BME280;46462;32.608;-117.032;2023-08-07T04:41:41;99485.74;;;29.86;47.84
60646;BME280;46462;32.608;-117.032;2023-08-07T04:44:11;99486.81;;;29.85;47.88
60646;BME280;46462;32.608;-117.032;2023-08-07T04:46:42;99488.76;;;29.85;47.81
60646;BME280;46462;32.608;-117.032;2023-08-07T04:49:12;99487.76;;;29.83;47.81
60646;BME280;46462;32.608;-117.032;2023-08-07T04:51:43;99486.28;;;29.82;47.96
60646;BME280;46462;32.608;-117.032;2023-08-07T04:54:13;99487.93;;;29.80;47.93
60646;BME280;46462;32.608;-117.032;2023-08-07T04:56:44;99491.67;;;29.80;47.91
60646;BME280;46462;32.608;-117.032;2023-08-07T04:59:14;99492.76;;;29.78;47.97
60646;BME280;46462;32.608;-117.032;2023-08-07T05:01:45;99490.82;;;29.80;47.92
60646;BME280;46462;32.608;-117.032;2023-08-07T05:04:16;99492.65;;;29.80;47.82
60646;BME280;46462;32.608;-117.032;2023-08-07T05:06:46;99492.19;;;29.81;47.78
60646;BME280;46462;32.608;-117.032;2023-08-07T05:09:17;99493.25;;;29.80;47.92
60646;BME280;46462;32.608;-117.032;2023-08-07T05:11:47;99496.64;;;29.81;47.75
60646;BME280;46462;32.608;-117.032;2023-08-07T05:14:17;99497.55;;;29.80;47.71
60646;BME280;46462;32.608;-117.032;2023-08-07T05:16:48;99500.05;;;29.81;47.67
60646;BME280;46462;32.608;-117.032;2023-08-07T05:19:19;99504.72;;;29.79;47.77
60646;BME280;46462;32.608;-117.032;2023-08-07T05:21:49;99507.11;;;29.79;47.77
60646;BME280;46462;32.608;-117.032;2023-08-07T05:24:20;99501.51;;;29.77;47.77
60646;BME280;46462;32.608;-117.032;2023-08-07T05:26:50;99499.56;;;29.77;47.76
60646;BME280;46462;32.608;-117.032;2023-08-07T05:29:21;99503.54;;;29.73;47.94
60646;BME280;46462;32.608;-117.032;2023-08-07T05:31:52;99503.11;;;29.69;47.89
60646;BME280;46462;32.608;-117.032;2023-08-07T05:34:22;99506.18;;;29.67;47.90
60646;BME280;46462;32.608;-117.032;2023-08-07T05:36:53;99504.57;;;29.66;47.95
60646;BME280;46462;32.608;-117.032;2023-08-07T05:39:23;99503.85;;;29.65;47.99
60646;BME280;46462;32.608;-117.032;2023-08-07T05:41:54;99504.27;;;29.64;47.96
60646;BME280;46462;32.608;-117.032;2023-08-07T05:44:24;99507.11;;;29.62;47.96
60646;BME280;46462;32.608;-117.032;2023-08-07T05:46:55;99510.36;;;29.63;48.04
60646;BME280;46462;32.608;-117.032;2023-08-07T05:49:25;99513.55;;;29.61;48.04
60646;BME280;46462;32.608;-117.032;2023-08-07T05:51:56;99510.82;;;29.58;48.06
60646;BME280;46462;32.608;-117.032;2023-08-07T05:54:27;99510.43;;;29.56;48.08
60646;BME280;46462;32.608;-117.032;2023-08-07T05:56:57;99510.40;;;29.56;48.06
60646;BME280;46462;32.608;-117.032;2023-08-07T05:59:28;99511.13;;;29.54;48.04
60646;BME280;46462;32.608;-117.032;2023-08-07T06:01:58;99511.93;;;29.53;48.04
60646;BME280;46462;32.608;-117.032;2023-08-07T06:04:29;99515.51;;;29.52;48.09
60646;BME280;46462;32.608;-117.032;2023-08-07T06:06:59;99512.38;;;29.52;48.04
60646;BME280;46462;32.608;-117.032;2023-08-07T06:09:30;99513.08;;;29.49;48.08
60646;BME280;46462;32.608;-117.032;2023-08-07T06:12:00;99520.60;;;29.48;48.11
60646;BME280;46462;32.608;-117.032;2023-08-07T06:14:31;99526.87;;;29.47;48.16
60646;BME280;46462;32.608;-117.032;2023-08-07T06:17:01;99524.53;;;29.46;48.13
60646;BME280;46462;32.608;-117.032;2023-08-07T06:19:32;99526.20;;;29.45;48.13
60646;BME280;46462;32.608;-117.032;2023-08-07T06:22:03;99526.42;;;29.44;48.13
60646;BME280;46462;32.608;-117.032;2023-08-07T06:24:33;99525.42;;;29.42;48.15
60646;BME280;46462;32.608;-117.032;2023-08-07T06:27:04;99525.76;;;29.43;48.12
60646;BME280;46462;32.608;-117.032;2023-08-07T06:29:34;99528.09;;;29.41;48.14
60646;BME280;46462;32.608;-117.032;2023-08-07T06:32:05;99529.91;;;29.40;48.13
60646;BME280;46462;32.608;-117.032;2023-08-07T06:34:36;99525.34;;;29.39;48.14
60646;BME280;46462;32.608;-117.032;2023-08-07T06:37:06;99527.26;;;29.45;47.98
60646;BME280;46462;32.608;-117.032;2023-08-07T06:39:36;99528.02;;;29.42;47.99
60646;BME280;46462;32.608;-117.032;2023-08-07T06:42:07;99529.25;;;29.39;48.06
60646;BME280;46462;32.608;-117.032;2023-08-07T06:44:37;99530.90;;;29.36;48.11
60646;BME280;46462;32.608;-117.032;2023-08-07T06:47:08;99530.14;;;29.34;48.12
60646;BME280;46462;32.608;-117.032;2023-08-07T06:49:38;99530.26;;;29.32;48.12
60646;BME280;46462;32.608;-117.032;2023-08-07T06:52:09;99525.93;;;29.33;48.10
60646;BME280;46462;32.608;-117.032;2023-08-07T06:54:40;99519.12;;;29.32;48.06
60646;BME280;46462;32.608;-117.032;2023-08-07T06:57:10;99517.82;;;29.33;48.03
60646;BME280;46462;32.608;-117.032;2023-08-07T06:59:41;99519.14;;;29.30;48.04
60646;BME280;46462;32.608;-117.032;2023-08-07T07:02:11;99517.18;;;29.30;48.08
60646;BME280;46462;32.608;-117.032;2023-08-07T07:04:41;99514.74;;;29.27;48.09
60646;BME280;46462;32.608;-117.032;2023-08-07T07:07:12;99510.49;;;29.28;48.02
60646;BME280;46462;32.608;-117.032;2023-08-07T07:09:43;99508.81;;;29.26;48.05
60646;BME280;46462;32.608;-117.032;2023-08-07T07:12:13;99503.44;;;29.25;48.04
60646;BME280;46462;32.608;-117.032;2023-08-07T07:14:43;99502.66;;;29.24;48.05
60646;BME280;46462;32.608;-117.032;2023-08-07T07:17:14;99501.67;;;29.24;48.04
60646;BME280;46462;32.608;-117.032;2023-08-07T07:19:45;99502.51;;;29.21;48.06
60646;BME280;46462;32.608;-117.032;2023-08-07T07:22:15;99501.95;;;29.19;48.09
60646;BME280;46462;32.608;-117.032;2023-08-07T07:24:46;99498.48;;;29.15;48.18
60646;BME280;46462;32.608;-117.032;2023-08-07T07:27:16;99501.02;;;29.14;48.13
60646;BME280;46462;32.608;-117.032;2023-08-07T07:29:47;99503.10;;;29.09;48.27
60646;BME280;46462;32.608;-117.032;2023-08-07T07:32:17;99506.14;;;29.08;48.30
60646;BME280;46462;32.608;-117.032;2023-08-07T07:34:48;99507.55;;;29.03;48.37
60646;BME280;46462;32.608;-117.032;2023-08-07T07:37:18;99511.98;;;29.05;48.25
60646;BME280;46462;32.608;-117.032;2023-08-07T07:39:49;99509.60;;;29.02;48.35
60646;BME280;46462;32.608;-117.032;2023-08-07T07:42:20;99506.58;;;29.02;48.27
60646;BME280;46462;32.608;-117.032;2023-08-07T07:44:50;99503.11;;;29.00;48.33
60646;BME280;46462;32.608;-117.032;2023-08-07T07:47:21;99501.13;;;29.00;48.25
60646;BME280;46462;32.608;-117.032;2023-08-07T07:52:21;99503.45;;;28.99;48.18
60646;BME280;46462;32.608;-117.032;2023-08-07T07:54:52;99502.07;;;28.98;48.18
60646;BME280;46462;32.608;-117.032;2023-08-07T07:57:23;99499.93;;;28.98;48.18
60646;BME280;46462;32.608;-117.032;2023-08-07T07:59:53;99494.58;;;28.97;48.14
60646;BME280;46462;32.608;-117.032;2023-08-07T08:02:24;99492.45;;;28.97;48.10
60646;BME280;46462;32.608;-117.032;2023-08-07T08:04:54;99492.45;;;28.94;48.13
60646;BME280;46462;32.608;-117.032;2023-08-07T08:07:25;99491.52;;;28.95;48.09
60646;BME280;46462;32.608;-117.032;2023-08-07T08:09:55;99487.49;;;28.92;48.11
60646;BME280;46462;32.608;-117.032;2023-08-07T08:12:26;99485.71;;;28.91;48.09
60646;BME280;46462;32.608;-117.032;2023-08-07T08:14:56;99481.51;;;28.88;48.09
60646;BME280;46462;32.608;-117.032;2023-08-07T08:17:27;99476.14;;;28.90;48.04
60646;BME280;46462;32.608;-117.032;2023-08-07T08:19:58;99478.35;;;28.87;48.06
60646;BME280;46462;32.608;-117.032;2023-08-07T08:22:28;99481.33;;;28.86;48.10
60646;BME280;46462;32.608;-117.032;2023-08-07T08:24:59;99481.60;;;28.84;48.09
60646;BME280;46462;32.608;-117.032;2023-08-07T08:27:29;99481.53;;;28.83;48.09
60646;BME280;46462;32.608;-117.032;2023-08-07T08:30:00;99479.24;;;28.81;48.08
60646;BME280;46462;32.608;-117.032;2023-08-07T08:32:31;99480.32;;;28.79;48.08
60646;BME280;46462;32.608;-117.032;2023-08-07T08:35:01;99480.69;;;28.76;48.12
60646;BME280;46462;32.608;-117.032;2023-08-07T08:37:31;99477.20;;;28.76;48.11
60646;BME280;46462;32.608;-117.032;2023-08-07T08:40:02;99475.70;;;28.73;48.15
60646;BME280;46462;32.608;-117.032;2023-08-07T08:42:33;99468.81;;;28.72;48.14
60646;BME280;46462;32.608;-117.032;2023-08-07T08:45:09;99464.71;;;28.69;48.20
60646;BME280;46462;32.608;-117.032;2023-08-07T08:47:39;99466.77;;;28.68;48.20
60646;BME280;46462;32.608;-117.032;2023-08-07T08:50:11;99465.17;;;28.64;48.24
60646;BME280;46462;32.608;-117.032;2023-08-07T08:52:42;99462.84;;;28.67;48.15
60646;BME280;46462;32.608;-117.032;2023-08-07T08:55:10;99462.72;;;28.67;48.12
60646;BME280;46462;32.608;-117.032;2023-08-07T08:57:40;99461.71;;;28.70;48.04
60646;BME280;46462;32.608;-117.032;2023-08-07T09:00:12;99457.79;;;28.70;47.94
60646;BME280;46462;32.608;-117.032;2023-08-07T09:02:42;99455.53;;;28.70;47.92
60646;BME280;46462;32.608;-117.032;2023-08-07T09:05:12;99453.01;;;28.71;47.90
60646;BME280;46462;32.608;-117.032;2023-08-07T09:07:43;99448.80;;;28.71;47.83
60646;BME280;46462;32.608;-117.032;2023-08-07T09:10:14;99444.90;;;28.67;47.95
60646;BME280;46462;32.608;-117.032;2023-08-07T09:12:49;99440.17;;;28.70;47.84
60646;BME280;46462;32.608;-117.032;2023-08-07T09:15:16;99437.10;;;28.73;47.72
60646;BME280;46462;32.608;-117.032;2023-08-07T09:17:45;99435.41;;;28.70;47.72
60646;BME280;46462;32.608;-117.032;2023-08-07T09:20:15;99434.72;;;28.66;47.85
60646;BME280;46462;32.608;-117.032;2023-08-07T09:22:46;99431.78;;;28.65;47.78
60646;BME280;46462;32.608;-117.032;2023-08-07T09:27:47;99428.08;;;28.62;47.86
60646;BME280;46462;32.608;-117.032;2023-08-07T09:30:18;99424.89;;;28.59;47.88
60646;BME280;46462;32.608;-117.032;2023-08-07T09:32:48;99422.56;;;28.60;47.79
60646;BME280;46462;32.608;-117.032;2023-08-07T09:35:21;99420.01;;;28.58;47.83
60646;BME280;46462;32.608;-117.032;2023-08-07T09:37:49;99411.86;;;28.54;47.83
60646;BME280;46462;32.608;-117.032;2023-08-07T09:40:21;99406.25;;;28.51;47.93
60646;BME280;46462;32.608;-117.032;2023-08-07T09:42:51;99401.88;;;28.50;47.85
60646;BME280;46462;32.608;-117.032;2023-08-07T09:45:22;99398.52;;;28.47;47.93
60646;BME280;46462;32.608;-117.032;2023-08-07T09:47:57;99396.49;;;28.47;47.88
60646;BME280;46462;32.608;-117.032;2023-08-07T09:50:23;99398.68;;;28.44;47.95
60646;BME280;46462;32.608;-117.032;2023-08-07T09:52:54;99401.12;;;28.47;47.84
60646;BME280;46462;32.608;-117.032;2023-08-07T09:55:24;99400.29;;;28.42;47.91
60646;BME280;46462;32.608;-117.032;2023-08-07T09:57:55;99393.52;;;28.42;47.85
60646;BME280;46462;32.608;-117.032;2023-08-07T10:00:25;99391.49;;;28.41;47.89
60646;BME280;46462;32.608;-117.032;2023-08-07T10:02:56;99388.81;;;28.42;47.79
60646;BME280;46462;32.608;-117.032;2023-08-07T10:05:26;99389.84;;;28.38;47.90
60646;BME280;46462;32.608;-117.032;2023-08-07T10:07:57;99386.99;;;28.38;47.81
60646;BME280;46462;32.608;-117.032;2023-08-07T10:10:27;99386.43;;;28.35;47.91
60646;BME280;46462;32.608;-117.032;2023-08-07T10:13:00;99381.27;;;28.35;47.83
60646;BME280;46462;32.608;-117.032;2023-08-07T10:15:29;99376.50;;;28.35;47.78
60646;BME280;46462;32.608;-117.032;2023-08-07T10:17:59;99375.27;;;28.36;47.70
60646;BME280;46462;32.608;-117.032;2023-08-07T10:20:30;99377.61;;;28.34;47.73
60646;BME280;46462;32.608;-117.032;2023-08-07T10:23:03;99374.33;;;28.33;47.71
60646;BME280;46462;32.608;-117.032;2023-08-07T10:25:31;99369.36;;;28.32;47.64
60646;BME280;46462;32.608;-117.032;2023-08-07T10:28:02;99365.89;;;28.31;47.65
60646;BME280;46462;32.608;-117.032;2023-08-07T10:30:33;99369.02;;;28.31;47.42
60646;BME280;46462;32.608;-117.032;2023-08-07T10:33:03;99372.41;;;28.30;47.57
60646;BME280;46462;32.608;-117.032;2023-08-07T10:35:33;99369.84;;;28.27;47.56
60646;BME280;46462;32.608;-117.032;2023-08-07T10:38:07;99371.46;;;28.25;47.55
60646;BME280;46462;32.608;-117.032;2023-08-07T10:40:34;99372.73;;;28.20;47.46
60646;BME280;46462;32.608;-117.032;2023-08-07T10:43:13;99371.49;;;28.22;47.37
60646;BME280;46462;32.608;-117.032;2023-08-07T10:45:35;99371.99;;;28.10;47.39
60646;BME280;46462;32.608;-117.032;2023-08-07T10:48:07;99370.74;;;28.10;47.69
60646;BME280;46462;32.608;-117.032;2023-08-07T10:53:06;99370.71;;;28.10;47.55
60646;BME280;46462;32.608;-117.032;2023-08-07T10:55:44;99370.11;;;28.03;47.40
60646;BME280;46462;32.608;-117.032;2023-08-07T11:00:38;99369.25;;;28.07;47.55
60646;BME280;46462;32.608;-117.032;2023-08-07T11:03:09;99369.17;;;28.12;47.44
60646;BME280;46462;32.608;-117.032;2023-08-07T11:05:40;99368.94;;;28.08;47.59
60646;BME280;46462;32.608;-117.032;2023-08-07T11:08:12;99369.79;;;28.07;47.50
60646;BME280;46462;32.608;-117.032;2023-08-07T11:10:41;99364.67;;;28.13;47.37
60646;BME280;46462;32.608;-117.032;2023-08-07T11:13:11;99365.82;;;28.11;47.33
60646;BME280;46462;32.608;-117.032;2023-08-07T11:15:42;99365.77;;;28.09;47.32
60646;BME280;46462;32.608;-117.032;2023-08-07T11:18:12;99368.95;;;28.03;47.46
60646;BME280;46462;32.608;-117.032;2023-08-07T11:20:43;99367.96;;;28.05;47.32
60646;BME280;46462;32.608;-117.032;2023-08-07T11:23:14;99375.03;;;28.07;47.25
60646;BME280;46462;32.608;-117.032;2023-08-07T11:25:44;99376.35;;;28.05;47.26
60646;BME280;46462;32.608;-117.032;2023-08-07T11:28:18;99376.27;;;27.97;47.24
60646;BME280;46462;32.608;-117.032;2023-08-07T11:30:46;99374.35;;;27.87;47.46
60646;BME280;46462;32.608;-117.032;2023-08-07T11:33:17;99378.93;;;27.84;47.49
60646;BME280;46462;32.608;-117.032;2023-08-07T11:35:47;99385.30;;;27.85;47.29
60646;BME280;46462;32.608;-117.032;2023-08-07T11:38:29;99388.41;;;27.91;47.42
60646;BME280;46462;32.608;-117.032;2023-08-07T11:40:48;99387.50;;;27.84;47.20
60646;BME280;46462;32.608;-117.032;2023-08-07T11:43:19;99388.94;;;27.91;47.29
60646;BME280;46462;32.608;-117.032;2023-08-07T11:45:50;99391.63;;;27.92;47.26
60646;BME280;46462;32.608;-117.032;2023-08-07T11:48:22;99390.79;;;27.74;47.35
60646;BME280;46462;32.608;-117.032;2023-08-07T11:50:51;99386.84;;;27.72;47.40
60646;BME280;46462;32.608;-117.032;2023-08-07T11:53:21;99388.06;;;27.76;47.36
60646;BME280;46462;32.608;-117.032;2023-08-07T11:55:54;99390.92;;;27.70;47.52
60646;BME280;46462;32.608;-117.032;2023-08-07T11:58:24;99389.53;;;27.49;47.66
60646;BME280;46462;32.608;-117.032;2023-08-07T12:00:53;99394.75;;;27.52;47.63
60646;BME280;46462;32.608;-117.032;2023-08-07T12:03:27;99393.65;;;27.57;47.43
60646;BME280;46462;32.608;-117.032;2023-08-07T12:05:56;99395.19;;;27.53;47.56
60646;BME280;46462;32.608;-117.032;2023-08-07T12:08:25;99395.12;;;27.46;47.76
60646;BME280;46462;32.608;-117.032;2023-08-07T12:10:55;99397.62;;;27.49;47.81
60646;BME280;46462;32.608;-117.032;2023-08-07T12:13:26;99398.25;;;27.52;47.59
60646;BME280;46462;32.608;-117.032;2023-08-07T12:15:57;99399.48;;;27.44;47.70
60646;BME280;46462;32.608;-117.032;2023-08-07T12:18:28;99404.82;;;27.46;47.74
60646;BME280;46462;32.608;-117.032;2023-08-07T12:20:59;99403.63;;;27.44;47.82
60646;BME280;46462;32.608;-117.032;2023-08-07T12:23:29;99404.78;;;27.46;47.72
60646;BME280;46462;32.608;-117.032;2023-08-07T12:25:59;99410.79;;;27.46;47.44
60646;BME280;46462;32.608;-117.032;2023-08-07T12:28:29;99412.91;;;27.44;47.60
60646;BME280;46462;32.608;-117.032;2023-08-07T12:31:00;99414.21;;;27.41;47.60
60646;BME280;46462;32.608;-117.032;2023-08-07T12:33:31;99417.68;;;27.34;47.72
60646;BME280;46462;32.608;-117.032;2023-08-07T12:36:02;99424.96;;;27.35;47.54
60646;BME280;46462;32.608;-117.032;2023-08-07T12:38:32;99429.13;;;27.34;47.72
60646;BME280;46462;32.608;-117.032;2023-08-07T12:41:03;99432.78;;;27.37;47.43
60646;BME280;46462;32.608;-117.032;2023-08-07T12:43:33;99435.69;;;27.39;47.37
60646;BME280;46462;32.608;-117.032;2023-08-07T12:46:04;99439.69;;;27.36;47.42
60646;BME280;46462;32.608;-117.032;2023-08-07T12:48:34;99442.09;;;27.35;47.47
60646;BME280;46462;32.608;-117.032;2023-08-07T12:51:05;99446.02;;;27.38;47.31
60646;BME280;46462;32.608;-117.032;2023-08-07T12:53:36;99447.47;;;27.37;47.54
60646;BME280;46462;32.608;-117.032;2023-08-07T12:56:06;99449.76;;;27.30;47.44